sensor_id;sensor_type;location;lat;lon;timestamp;P1;durP1;ratioP1;P2;durP2;ratioP2
1715;SDS011;855;48.824;9.220;2022-08-21T00:00:19;11.27;;;6.60;;
1715;SDS011;855;48.824;9.220;2022-08-21T00:02:53;15.63;;;7.17;;
1715;SDS011;855;48.824;9.220;2022-08-21T00:05:21;13.50;;;7.40;;
1715;SDS011;855;48.824;9.220;2022-08-21T00:07:49;12.87;;;6.70;;
1715;SDS011;855;48.824;9.220;2022-08-21T00:10:17;12.47;;;7.77;;
1715;SDS011;855;48.824;9.220;2022-08-21T00:12:45;18.57;;;6.60;;
1715;SDS011;855;48.824;9.220;2022-08-21T00:15:15;18.47;;;8.20;;
1715;SDS011;855;48.824;9.220;2022-08-21T00:17:43;20.37;;;7.00;;
1715;SDS011;855;48.824;9.220;2022-08-21T00:20:11;12.20;;;6.33;;
1715;SDS011;855;48.824;9.220;2022-08-21T00:22:41;21.87;;;8.30;;
1715;SDS011;855;48.824;9.220;2022-08-21T00:25:08;11.23;;;6.60;;
1715;SDS011;855;48.824;9.220;2022-08-21T00:27:36;13.27;;;7.17;;
1715;SDS011;855;48.824;9.220;2022-08-21T00:30:03;13.30;;;6.70;;
1715;SDS011;855;48.824;9.220;2022-08-21T00:32:32;15.23;;;6.37;;
1715;SDS011;855;48.824;9.220;2022-08-21T00:34:59;14.57;;;6.70;;
1715;SDS011;855;48.824;9.220;2022-08-21T00:37:26;10.80;;;5.60;;
1715;SDS011;855;48.824;9.220;2022-08-21T00:39:53;15.57;;;6.00;;
1715;SDS011;855;48.824;9.220;2022-08-21T00:42:20;9.80;;;5.43;;
1715;SDS011;855;48.824;9.220;2022-08-21T00:44:47;12.70;;;5.70;;
1715;SDS011;855;48.824;9.220;2022-08-21T00:47:15;16.50;;;7.10;;
1715;SDS011;855;48.824;9.220;2022-08-21T00:49:44;9.43;;;5.60;;
1715;SDS011;855;48.824;9.220;2022-08-21T00:52:12;14.80;;;6.97;;
1715;SDS011;855;48.824;9.220;2022-08-21T00:54:43;8.00;;;5.00;;
1715;SDS011;855;48.824;9.220;2022-08-21T00:57:12;12.97;;;5.60;;
1715;SDS011;855;48.824;9.220;2022-08-21T00:59:42;12.63;;;6.30;;
1715;SDS011;855;48.824;9.220;2022-08-21T01:02:11;10.50;;;4.60;;
1715;SDS011;855;48.824;9.220;2022-08-21T01:04:38;12.70;;;5.57;;
1715;SDS011;855;48.824;9.220;2022-08-21T01:07:07;8.83;;;6.13;;
1715;SDS011;855;48.824;9.220;2022-08-21T01:09:35;11.57;;;6.37;;
1715;SDS011;855;48.824;9.220;2022-08-21T01:12:02;9.20;;;4.80;;
1715;SDS011;855;48.824;9.220;2022-08-21T01:14:30;9.33;;;5.23;;
1715;SDS011;855;48.824;9.220;2022-08-21T01:16:57;9.93;;;5.13;;
1715;SDS011;855;48.824;9.220;2022-08-21T01:19:26;8.67;;;5.20;;
1715;SDS011;855;48.824;9.220;2022-08-21T01:21:54;9.97;;;5.00;;
1715;SDS011;855;48.824;9.220;2022-08-21T01:24:22;7.83;;;4.53;;
1715;SDS011;855;48.824;9.220;2022-08-21T01:26:49;10.10;;;5.23;;
1715;SDS011;855;48.824;9.220;2022-08-21T01:29:20;7.50;;;5.17;;
1715;SDS011;855;48.824;9.220;2022-08-21T01:31:54;9.93;;;5.53;;
1715;SDS011;855;48.824;9.220;2022-08-21T01:34:22;7.07;;;4.30;;
1715;SDS011;855;48.824;9.220;2022-08-21T01:36:49;8.40;;;4.03;;
1715;SDS011;855;48.824;9.220;2022-08-21T01:39:17;7.97;;;4.10;;
1715;SDS011;855;48.824;9.220;2022-08-21T01:41:44;9.90;;;5.07;;
1715;SDS011;855;48.824;9.220;2022-08-21T01:44:11;5.87;;;4.03;;
1715;SDS011;855;48.824;9.220;2022-08-21T01:46:38;8.30;;;5.03;;
1715;SDS011;855;48.824;9.220;2022-08-21T01:49:05;11.63;;;4.50;;
1715;SDS011;855;48.824;9.220;2022-08-21T01:51:32;10.20;;;5.13;;
1715;SDS011;855;48.824;9.220;2022-08-21T01:53:59;10.03;;;4.83;;
1715;SDS011;855;48.824;9.220;2022-08-21T01:56:27;7.30;;;4.50;;
1715;SDS011;855;48.824;9.220;2022-08-21T01:58:54;8.93;;;3.90;;
1715;SDS011;855;48.824;9.220;2022-08-21T02:01:21;6.97;;;4.50;;
1715;SDS011;855;48.824;9.220;2022-08-21T02:03:48;7.13;;;4.70;;
1715;SDS011;855;48.824;9.220;2022-08-21T02:06:15;6.37;;;4.20;;
1715;SDS011;855;48.824;9.220;2022-08-21T02:08:43;8.30;;;4.70;;
1715;SDS011;855;48.824;9.220;2022-08-21T02:11:10;7.43;;;4.80;;
1715;SDS011;855;48.824;9.220;2022-08-21T02:13:38;10.43;;;4.27;;
1715;SDS011;855;48.824;9.220;2022-08-21T02:16:05;11.40;;;4.73;;
1715;SDS011;855;48.824;9.220;2022-08-21T02:18:33;7.83;;;4.40;;
1715;SDS011;855;48.824;9.220;2022-08-21T02:21:00;7.87;;;4.67;;
1715;SDS011;855;48.824;9.220;2022-08-21T02:23:27;7.17;;;3.90;;
1715;SDS011;855;48.824;9.220;2022-08-21T02:25:54;8.03;;;4.10;;
1715;SDS011;855;48.824;9.220;2022-08-21T02:28:21;6.90;;;3.13;;
1715;SDS011;855;48.824;9.220;2022-08-21T02:30:50;6.83;;;4.03;;
1715;SDS011;855;48.824;9.220;2022-08-21T02:33:17;12.30;;;4.57;;
1715;SDS011;855;48.824;9.220;2022-08-21T02:35:45;9.57;;;3.27;;
1715;SDS011;855;48.824;9.220;2022-08-21T02:38:13;6.93;;;4.63;;
1715;SDS011;855;48.824;9.220;2022-08-21T02:40:42;9.80;;;3.90;;
1715;SDS011;855;48.824;9.220;2022-08-21T02:43:10;5.80;;;3.67;;
1715;SDS011;855;48.824;9.220;2022-08-21T02:45:37;9.80;;;4.37;;
1715;SDS011;855;48.824;9.220;2022-08-21T02:48:07;8.63;;;3.30;;
1715;SDS011;855;48.824;9.220;2022-08-21T02:50:36;6.87;;;3.57;;
1715;SDS011;855;48.824;9.220;2022-08-21T02:53:04;6.00;;;3.50;;
1715;SDS011;855;48.824;9.220;2022-08-21T02:55:32;8.10;;;3.50;;
1715;SDS011;855;48.824;9.220;2022-08-21T02:58:01;7.70;;;3.90;;
1715;SDS011;855;48.824;9.220;2022-08-21T03:00:29;5.30;;;3.87;;
1715;SDS011;855;48.824;9.220;2022-08-21T03:02:57;5.43;;;3.63;;
1715;SDS011;855;48.824;9.220;2022-08-21T03:05:27;8.20;;;3.60;;
1715;SDS011;855;48.824;9.220;2022-08-21T03:07:56;6.83;;;3.67;;
1715;SDS011;855;48.824;9.220;2022-08-21T03:10:24;8.80;;;4.00;;
1715;SDS011;855;48.824;9.220;2022-08-21T03:12:51;5.47;;;3.90;;
1715;SDS011;855;48.824;9.220;2022-08-21T03:15:20;6.50;;;3.70;;
1715;SDS011;855;48.824;9.220;2022-08-21T03:17:49;5.53;;;3.37;;
1715;SDS011;855;48.824;9.220;2022-08-21T03:20:17;8.03;;;4.23;;
1715;SDS011;855;48.824;9.220;2022-08-21T03:22:49;4.63;;;3.43;;
1715;SDS011;855;48.824;9.220;2022-08-21T03:25:16;5.77;;;3.57;;
1715;SDS011;855;48.824;9.220;2022-08-21T03:27:43;7.53;;;3.70;;
1715;SDS011;855;48.824;9.220;2022-08-21T03:30:10;5.70;;;3.63;;
1715;SDS011;855;48.824;9.220;2022-08-21T03:32:38;7.13;;;4.03;;
1715;SDS011;855;48.824;9.220;2022-08-21T03:35:06;5.83;;;3.37;;
1715;SDS011;855;48.824;9.220;2022-08-21T03:37:34;15.80;;;4.07;;
1715;SDS011;855;48.824;9.220;2022-08-21T03:40:03;8.70;;;3.40;;
1715;SDS011;855;48.824;9.220;2022-08-21T03:42:30;5.57;;;3.20;;
1715;SDS011;855;48.824;9.220;2022-08-21T03:44:57;5.57;;;4.00;;
1715;SDS011;855;48.824;9.220;2022-08-21T03:47:24;6.67;;;3.73;;
1715;SDS011;855;48.824;9.220;2022-08-21T03:49:51;8.03;;;4.00;;
1715;SDS011;855;48.824;9.220;2022-08-21T03:52:19;9.50;;;3.47;;
1715;SDS011;855;48.824;9.220;2022-08-21T03:54:46;6.50;;;3.40;;
1715;SDS011;855;48.824;9.220;2022-08-21T03:57:14;7.50;;;3.30;;
1715;SDS011;855;48.824;9.220;2022-08-21T03:59:41;6.73;;;3.50;;
1715;SDS011;855;48.824;9.220;2022-08-21T04:02:09;7.70;;;4.17;;
1715;SDS011;855;48.824;9.220;2022-08-21T04:04:36;7.50;;;3.80;;
1715;SDS011;855;48.824;9.220;2022-08-21T04:07:03;9.23;;;3.90;;
1715;SDS011;855;48.824;9.220;2022-08-21T04:09:30;9.53;;;3.87;;
1715;SDS011;855;48.824;9.220;2022-08-21T04:11:57;6.03;;;3.40;;
1715;SDS011;855;48.824;9.220;2022-08-21T04:14:27;7.50;;;4.17;;
1715;SDS011;855;48.824;9.220;2022-08-21T04:16:54;7.43;;;3.43;;
1715;SDS011;855;48.824;9.220;2022-08-21T04:19:20;12.37;;;4.03;;
1715;SDS011;855;48.824;9.220;2022-08-21T04:21:48;6.77;;;3.57;;
1715;SDS011;855;48.824;9.220;2022-08-21T04:24:15;6.67;;;3.53;;
1715;SDS011;855;48.824;9.220;2022-08-21T04:26:42;6.80;;;3.50;;
1715;SDS011;855;48.824;9.220;2022-08-21T04:29:08;8.17;;;3.70;;
1715;SDS011;855;48.824;9.220;2022-08-21T04:31:37;12.63;;;3.57;;
1715;SDS011;855;48.824;9.220;2022-08-21T04:34:04;5.70;;;3.83;;
1715;SDS011;855;48.824;9.220;2022-08-21T04:36:31;6.27;;;3.50;;
1715;SDS011;855;48.824;9.220;2022-08-21T04:38:59;5.83;;;3.43;;
1715;SDS011;855;48.824;9.220;2022-08-21T04:41:26;7.63;;;3.30;;
1715;SDS011;855;48.824;9.220;2022-08-21T04:43:54;8.40;;;4.37;;
1715;SDS011;855;48.824;9.220;2022-08-21T04:46:21;8.07;;;4.10;;
1715;SDS011;855;48.824;9.220;2022-08-21T04:48:49;4.67;;;3.70;;
1715;SDS011;855;48.824;9.220;2022-08-21T04:51:17;4.37;;;3.67;;
1715;SDS011;855;48.824;9.220;2022-08-21T04:53:49;7.90;;;3.70;;
1715;SDS011;855;48.824;9.220;2022-08-21T04:56:19;5.37;;;3.80;;
1715;SDS011;855;48.824;9.220;2022-08-21T04:58:48;5.20;;;3.77;;
1715;SDS011;855;48.824;9.220;2022-08-21T05:01:18;6.57;;;3.73;;
1715;SDS011;855;48.824;9.220;2022-08-21T05:03:47;4.70;;;3.50;;
1715;SDS011;855;48.824;9.220;2022-08-21T05:06:18;7.10;;;3.50;;
1715;SDS011;855;48.824;9.220;2022-08-21T05:08:46;6.43;;;4.20;;
1715;SDS011;855;48.824;9.220;2022-08-21T05:11:17;5.00;;;3.33;;
1715;SDS011;855;48.824;9.220;2022-08-21T05:13:44;7.27;;;4.23;;
1715;SDS011;855;48.824;9.220;2022-08-21T05:16:11;4.77;;;3.33;;
1715;SDS011;855;48.824;9.220;2022-08-21T05:18:38;5.30;;;4.03;;
1715;SDS011;855;48.824;9.220;2022-08-21T05:21:07;6.27;;;3.30;;
1715;SDS011;855;48.824;9.220;2022-08-21T05:23:34;9.60;;;3.63;;
1715;SDS011;855;48.824;9.220;2022-08-21T05:26:01;5.93;;;3.93;;
1715;SDS011;855;48.824;9.220;2022-08-21T05:28:29;6.03;;;3.80;;
1715;SDS011;855;48.824;9.220;2022-08-21T05:30:56;7.20;;;4.17;;
1715;SDS011;855;48.824;9.220;2022-08-21T05:33:23;6.80;;;4.00;;
1715;SDS011;855;48.824;9.220;2022-08-21T05:35:50;7.83;;;3.37;;
1715;SDS011;855;48.824;9.220;2022-08-21T05:38:19;5.23;;;3.40;;
1715;SDS011;855;48.824;9.220;2022-08-21T05:40:46;16.93;;;4.90;;
1715;SDS011;855;48.824;9.220;2022-08-21T05:43:13;7.40;;;4.20;;
1715;SDS011;855;48.824;9.220;2022-08-21T05:45:40;11.97;;;4.43;;
1715;SDS011;855;48.824;9.220;2022-08-21T05:48:08;4.83;;;3.53;;
1715;SDS011;855;48.824;9.220;2022-08-21T05:50:37;10.87;;;4.70;;
1715;SDS011;855;48.824;9.220;2022-08-21T05:53:04;12.03;;;3.93;;
1715;SDS011;855;48.824;9.220;2022-08-21T05:55:33;9.13;;;4.77;;
1715;SDS011;855;48.824;9.220;2022-08-21T05:58:01;4.73;;;3.93;;
1715;SDS011;855;48.824;9.220;2022-08-21T06:00:28;10.63;;;4.23;;
1715;SDS011;855;48.824;9.220;2022-08-21T06:02:55;6.33;;;3.93;;
1715;SDS011;855;48.824;9.220;2022-08-21T06:05:22;6.43;;;4.00;;
1715;SDS011;855;48.824;9.220;2022-08-21T06:07:49;9.43;;;3.77;;
1715;SDS011;855;48.824;9.220;2022-08-21T06:10:17;5.47;;;3.23;;
1715;SDS011;855;48.824;9.220;2022-08-21T06:12:45;7.20;;;3.83;;
1715;SDS011;855;48.824;9.220;2022-08-21T06:15:12;6.53;;;3.90;;
1715;SDS011;855;48.824;9.220;2022-08-21T06:17:39;11.37;;;4.13;;
1715;SDS011;855;48.824;9.220;2022-08-21T06:20:06;8.93;;;4.37;;
1715;SDS011;855;48.824;9.220;2022-08-21T06:22:34;7.40;;;3.30;;
1715;SDS011;855;48.824;9.220;2022-08-21T06:25:00;6.07;;;4.13;;
1715;SDS011;855;48.824;9.220;2022-08-21T06:27:27;8.20;;;3.80;;
1715;SDS011;855;48.824;9.220;2022-08-21T06:29:56;8.57;;;3.57;;
1715;SDS011;855;48.824;9.220;2022-08-21T06:32:23;9.90;;;3.20;;
1715;SDS011;855;48.824;9.220;2022-08-21T06:34:50;9.63;;;3.33;;
1715;SDS011;855;48.824;9.220;2022-08-21T06:37:17;6.20;;;3.07;;
1715;SDS011;855;48.824;9.220;2022-08-21T06:39:44;5.30;;;3.37;;
1715;SDS011;855;48.824;9.220;2022-08-21T06:42:13;5.63;;;3.27;;
1715;SDS011;855;48.824;9.220;2022-08-21T06:44:41;10.13;;;3.90;;
1715;SDS011;855;48.824;9.220;2022-08-21T06:47:09;6.70;;;3.90;;
1715;SDS011;855;48.824;9.220;2022-08-21T06:49:36;9.50;;;3.40;;
1715;SDS011;855;48.824;9.220;2022-08-21T06:52:03;18.37;;;4.40;;
1715;SDS011;855;48.824;9.220;2022-08-21T06:54:35;7.43;;;3.60;;
1715;SDS011;855;48.824;9.220;2022-08-21T06:57:02;6.50;;;3.23;;
1715;SDS011;855;48.824;9.220;2022-08-21T06:59:29;7.43;;;3.50;;
1715;SDS011;855;48.824;9.220;2022-08-21T07:01:56;5.40;;;3.40;;
1715;SDS011;855;48.824;9.220;2022-08-21T07:04:25;6.23;;;3.67;;
1715;SDS011;855;48.824;9.220;2022-08-21T07:06:52;7.50;;;3.30;;
1715;SDS011;855;48.824;9.220;2022-08-21T07:09:19;13.87;;;4.93;;
1715;SDS011;855;48.824;9.220;2022-08-21T07:11:46;6.73;;;3.67;;
1715;SDS011;855;48.824;9.220;2022-08-21T07:14:16;5.80;;;4.07;;
1715;SDS011;855;48.824;9.220;2022-08-21T07:16:43;6.13;;;3.73;;
1715;SDS011;855;48.824;9.220;2022-08-21T07:19:10;5.70;;;2.73;;
1715;SDS011;855;48.824;9.220;2022-08-21T07:21:38;5.70;;;3.80;;
1715;SDS011;855;48.824;9.220;2022-08-21T07:24:05;8.87;;;3.77;;
1715;SDS011;855;48.824;9.220;2022-08-21T07:26:32;19.23;;;4.33;;
1715;SDS011;855;48.824;9.220;2022-08-21T07:28:58;4.50;;;2.83;;
1715;SDS011;855;48.824;9.220;2022-08-21T07:31:25;6.93;;;2.70;;
1715;SDS011;855;48.824;9.220;2022-08-21T07:33:52;9.23;;;3.70;;
1715;SDS011;855;48.824;9.220;2022-08-21T07:36:19;9.03;;;3.80;;
1715;SDS011;855;48.824;9.220;2022-08-21T07:38:48;10.40;;;3.83;;
1715;SDS011;855;48.824;9.220;2022-08-21T07:41:15;8.80;;;3.60;;
1715;SDS011;855;48.824;9.220;2022-08-21T07:43:44;7.47;;;3.67;;
1715;SDS011;855;48.824;9.220;2022-08-21T07:46:11;10.20;;;3.70;;
1715;SDS011;855;48.824;9.220;2022-08-21T07:48:39;7.63;;;5.27;;
1715;SDS011;855;48.824;9.220;2022-08-21T07:51:06;7.10;;;4.10;;
1715;SDS011;855;48.824;9.220;2022-08-21T07:53:40;8.30;;;3.83;;
1715;SDS011;855;48.824;9.220;2022-08-21T07:56:08;9.83;;;4.43;;
1715;SDS011;855;48.824;9.220;2022-08-21T07:58:37;9.10;;;4.40;;
1715;SDS011;855;48.824;9.220;2022-08-21T08:01:04;11.90;;;3.33;;
1715;SDS011;855;48.824;9.220;2022-08-21T08:03:32;9.70;;;3.70;;
1715;SDS011;855;48.824;9.220;2022-08-21T08:05:59;7.27;;;3.60;;
1715;SDS011;855;48.824;9.220;2022-08-21T08:08:26;9.13;;;4.47;;
1715;SDS011;855;48.824;9.220;2022-08-21T08:10:53;7.00;;;3.50;;
1715;SDS011;855;48.824;9.220;2022-08-21T08:13:23;5.80;;;3.87;;
1715;SDS011;855;48.824;9.220;2022-08-21T08:15:51;10.30;;;5.07;;
1715;SDS011;855;48.824;9.220;2022-08-21T08:18:18;4.60;;;3.33;;
1715;SDS011;855;48.824;9.220;2022-08-21T08:20:45;8.00;;;3.80;;
1715;SDS011;855;48.824;9.220;2022-08-21T08:23:12;6.67;;;3.50;;
1715;SDS011;855;48.824;9.220;2022-08-21T08:25:39;8.97;;;4.17;;
1715;SDS011;855;48.824;9.220;2022-08-21T08:28:06;6.87;;;3.43;;
1715;SDS011;855;48.824;9.220;2022-08-21T08:30:35;18.60;;;4.43;;
1715;SDS011;855;48.824;9.220;2022-08-21T08:33:02;6.10;;;3.77;;
1715;SDS011;855;48.824;9.220;2022-08-21T08:35:29;12.43;;;4.20;;
1715;SDS011;855;48.824;9.220;2022-08-21T08:37:55;8.80;;;4.33;;
1715;SDS011;855;48.824;9.220;2022-08-21T08:40:24;11.77;;;4.27;;
1715;SDS011;855;48.824;9.220;2022-08-21T08:43:05;8.30;;;4.00;;
1715;SDS011;855;48.824;9.220;2022-08-21T08:45:32;9.40;;;3.87;;
1715;SDS011;855;48.824;9.220;2022-08-21T08:48:04;10.93;;;4.00;;
1715;SDS011;855;48.824;9.220;2022-08-21T08:50:37;7.40;;;4.20;;
1715;SDS011;855;48.824;9.220;2022-08-21T08:53:09;10.40;;;3.80;;
1715;SDS011;855;48.824;9.220;2022-08-21T08:55:41;12.90;;;4.40;;
1715;SDS011;855;48.824;9.220;2022-08-21T08:58:10;10.10;;;4.10;;
1715;SDS011;855;48.824;9.220;2022-08-21T09:00:43;11.43;;;3.90;;
1715;SDS011;855;48.824;9.220;2022-08-21T09:03:13;5.23;;;3.03;;
1715;SDS011;855;48.824;9.220;2022-08-21T09:05:42;11.17;;;3.70;;
1715;SDS011;855;48.824;9.220;2022-08-21T09:08:20;11.83;;;3.93;;
1715;SDS011;855;48.824;9.220;2022-08-21T09:11:00;8.47;;;5.23;;
1715;SDS011;855;48.824;9.220;2022-08-21T09:13:33;7.13;;;4.10;;
1715;SDS011;855;48.824;9.220;2022-08-21T09:16:12;9.43;;;4.80;;
1715;SDS011;855;48.824;9.220;2022-08-21T09:18:50;7.53;;;4.07;;
1715;SDS011;855;48.824;9.220;2022-08-21T09:21:26;14.40;;;5.97;;
1715;SDS011;855;48.824;9.220;2022-08-21T09:23:58;7.03;;;3.83;;
1715;SDS011;855;48.824;9.220;2022-08-21T09:26:30;7.30;;;4.50;;
1715;SDS011;855;48.824;9.220;2022-08-21T09:29:04;8.80;;;3.67;;
1715;SDS011;855;48.824;9.220;2022-08-21T09:31:35;11.13;;;3.93;;
1715;SDS011;855;48.824;9.220;2022-08-21T09:34:04;10.57;;;4.00;;
1715;SDS011;855;48.824;9.220;2022-08-21T09:36:36;11.17;;;5.67;;
1715;SDS011;855;48.824;9.220;2022-08-21T09:39:04;7.83;;;3.90;;
1715;SDS011;855;48.824;9.220;2022-08-21T09:41:33;9.90;;;4.40;;
1715;SDS011;855;48.824;9.220;2022-08-21T09:44:01;8.40;;;4.07;;
1715;SDS011;855;48.824;9.220;2022-08-21T09:46:29;7.83;;;3.60;;
1715;SDS011;855;48.824;9.220;2022-08-21T09:48:59;9.47;;;4.67;;
1715;SDS011;855;48.824;9.220;2022-08-21T09:51:28;8.10;;;4.50;;
1715;SDS011;855;48.824;9.220;2022-08-21T09:53:58;10.03;;;4.47;;
1715;SDS011;855;48.824;9.220;2022-08-21T09:56:39;9.50;;;3.50;;
1715;SDS011;855;48.824;9.220;2022-08-21T09:59:38;8.20;;;3.90;;
1715;SDS011;855;48.824;9.220;2022-08-21T10:02:19;8.03;;;4.27;;
1715;SDS011;855;48.824;9.220;2022-08-21T10:04:53;6.13;;;3.23;;
1715;SDS011;855;48.824;9.220;2022-08-21T10:07:22;8.73;;;3.67;;
1715;SDS011;855;48.824;9.220;2022-08-21T10:09:58;23.83;;;4.73;;
1715;SDS011;855;48.824;9.220;2022-08-21T10:12:28;11.60;;;3.93;;
1715;SDS011;855;48.824;9.220;2022-08-21T10:15:03;13.33;;;3.73;;
1715;SDS011;855;48.824;9.220;2022-08-21T10:17:44;9.27;;;3.63;;
1715;SDS011;855;48.824;9.220;2022-08-21T10:20:22;10.03;;;4.50;;
1715;SDS011;855;48.824;9.220;2022-08-21T10:22:58;7.57;;;3.80;;
1715;SDS011;855;48.824;9.220;2022-08-21T10:25:35;5.67;;;3.10;;
1715;SDS011;855;48.824;9.220;2022-08-21T10:28:08;10.10;;;4.00;;
1715;SDS011;855;48.824;9.220;2022-08-21T10:30:41;11.70;;;3.40;;
1715;SDS011;855;48.824;9.220;2022-08-21T10:33:17;6.03;;;3.73;;
1715;SDS011;855;48.824;9.220;2022-08-21T10:35:53;8.83;;;3.70;;
1715;SDS011;855;48.824;9.220;2022-08-21T10:38:40;9.13;;;3.60;;
1715;SDS011;855;48.824;9.220;2022-08-21T10:41:17;17.13;;;3.93;;
1715;SDS011;855;48.824;9.220;2022-08-21T10:43:56;8.77;;;3.03;;
1715;SDS011;855;48.824;9.220;2022-08-21T10:46:36;12.00;;;3.90;;
1715;SDS011;855;48.824;9.220;2022-08-21T10:49:14;5.73;;;3.37;;
1715;SDS011;855;48.824;9.220;2022-08-21T10:51:51;9.73;;;3.33;;
1715;SDS011;855;48.824;9.220;2022-08-21T10:54:26;11.33;;;3.10;;
1715;SDS011;855;48.824;9.220;2022-08-21T10:57:04;12.93;;;3.93;;
1715;SDS011;855;48.824;9.220;2022-08-21T10:59:38;8.23;;;3.77;;
1715;SDS011;855;48.824;9.220;2022-08-21T11:02:11;9.33;;;4.10;;
1715;SDS011;855;48.824;9.220;2022-08-21T11:04:43;19.83;;;3.83;;
1715;SDS011;855;48.824;9.220;2022-08-21T11:07:20;12.30;;;3.77;;
1715;SDS011;855;48.824;9.220;2022-08-21T11:09:51;12.20;;;4.17;;
1715;SDS011;855;48.824;9.220;2022-08-21T11:12:23;7.60;;;4.00;;
1715;SDS011;855;48.824;9.220;2022-08-21T11:14:54;16.40;;;3.93;;
1715;SDS011;855;48.824;9.220;2022-08-21T11:17:27;8.93;;;3.37;;
1715;SDS011;855;48.824;9.220;2022-08-21T11:19:59;12.33;;;4.73;;
1715;SDS011;855;48.824;9.220;2022-08-21T11:22:33;9.10;;;3.97;;
1715;SDS011;855;48.824;9.220;2022-08-21T11:25:07;10.30;;;4.13;;
1715;SDS011;855;48.824;9.220;2022-08-21T11:27:39;11.00;;;3.83;;
1715;SDS011;855;48.824;9.220;2022-08-21T11:30:10;7.70;;;3.50;;
1715;SDS011;855;48.824;9.220;2022-08-21T11:32:43;9.03;;;3.70;;
1715;SDS011;855;48.824;9.220;2022-08-21T11:35:22;9.27;;;3.63;;
1715;SDS011;855;48.824;9.220;2022-08-21T11:38:01;9.13;;;3.57;;
1715;SDS011;855;48.824;9.220;2022-08-21T11:40:42;8.97;;;3.70;;
1715;SDS011;855;48.824;9.220;2022-08-21T11:43:18;10.33;;;3.50;;
1715;SDS011;855;48.824;9.220;2022-08-21T11:45:55;6.37;;;3.57;;
1715;SDS011;855;48.824;9.220;2022-08-21T11:48:31;8.10;;;3.87;;
1715;SDS011;855;48.824;9.220;2022-08-21T11:51:07;8.30;;;3.67;;
1715;SDS011;855;48.824;9.220;2022-08-21T11:53:42;10.97;;;4.53;;
1715;SDS011;855;48.824;9.220;2022-08-21T11:56:17;6.07;;;3.23;;
1715;SDS011;855;48.824;9.220;2022-08-21T11:58:49;21.63;;;3.57;;
1715;SDS011;855;48.824;9.220;2022-08-21T12:01:21;10.70;;;3.53;;
1715;SDS011;855;48.824;9.220;2022-08-21T12:03:52;4.80;;;2.83;;
1715;SDS011;855;48.824;9.220;2022-08-21T12:06:29;11.47;;;3.40;;
1715;SDS011;855;48.824;9.220;2022-08-21T12:09:00;17.73;;;4.00;;
1715;SDS011;855;48.824;9.220;2022-08-21T12:11:29;6.30;;;3.43;;
1715;SDS011;855;48.824;9.220;2022-08-21T12:13:57;6.30;;;2.90;;
1715;SDS011;855;48.824;9.220;2022-08-21T12:16:29;11.63;;;4.07;;
1715;SDS011;855;48.824;9.220;2022-08-21T12:19:03;8.70;;;3.50;;
1715;SDS011;855;48.824;9.220;2022-08-21T12:21:32;9.23;;;3.63;;
1715;SDS011;855;48.824;9.220;2022-08-21T12:24:02;5.50;;;3.13;;
1715;SDS011;855;48.824;9.220;2022-08-21T12:26:47;6.17;;;3.50;;
1715;SDS011;855;48.824;9.220;2022-08-21T12:29:16;11.90;;;3.53;;
1715;SDS011;855;48.824;9.220;2022-08-21T12:31:54;13.10;;;3.33;;
1715;SDS011;855;48.824;9.220;2022-08-21T12:34:24;7.03;;;3.40;;
1715;SDS011;855;48.824;9.220;2022-08-21T12:36:58;8.73;;;2.83;;
1715;SDS011;855;48.824;9.220;2022-08-21T12:39:31;6.43;;;3.50;;
1715;SDS011;855;48.824;9.220;2022-08-21T12:42:04;8.17;;;3.27;;
1715;SDS011;855;48.824;9.220;2022-08-21T12:44:35;9.37;;;3.47;;
1715;SDS011;855;48.824;9.220;2022-08-21T12:47:11;12.90;;;3.50;;
1715;SDS011;855;48.824;9.220;2022-08-21T12:49:44;13.17;;;3.77;;
1715;SDS011;855;48.824;9.220;2022-08-21T12:52:19;10.40;;;3.13;;
1715;SDS011;855;48.824;9.220;2022-08-21T12:54:50;9.50;;;3.97;;
1715;SDS011;855;48.824;9.220;2022-08-21T12:57:18;8.17;;;3.60;;
1715;SDS011;855;48.824;9.220;2022-08-21T12:59:51;15.13;;;3.30;;
1715;SDS011;855;48.824;9.220;2022-08-21T13:02:19;5.90;;;2.70;;
1715;SDS011;855;48.824;9.220;2022-08-21T13:04:49;6.97;;;2.53;;
1715;SDS011;855;48.824;9.220;2022-08-21T13:07:20;11.03;;;4.40;;
1715;SDS011;855;48.824;9.220;2022-08-21T13:09:54;6.93;;;3.10;;
1715;SDS011;855;48.824;9.220;2022-08-21T13:12:24;10.47;;;3.57;;
1715;SDS011;855;48.824;9.220;2022-08-21T13:14:54;8.30;;;2.57;;
1715;SDS011;855;48.824;9.220;2022-08-21T13:17:24;8.00;;;3.30;;
1715;SDS011;855;48.824;9.220;2022-08-21T13:19:55;11.20;;;3.67;;
1715;SDS011;855;48.824;9.220;2022-08-21T13:22:23;12.67;;;3.57;;
1715;SDS011;855;48.824;9.220;2022-08-21T13:24:53;10.73;;;3.23;;
1715;SDS011;855;48.824;9.220;2022-08-21T13:27:22;8.70;;;3.33;;
1715;SDS011;855;48.824;9.220;2022-08-21T13:30:04;9.00;;;3.70;;
1715;SDS011;855;48.824;9.220;2022-08-21T13:32:38;6.20;;;2.87;;
1715;SDS011;855;48.824;9.220;2022-08-21T13:35:09;8.27;;;3.20;;
1715;SDS011;855;48.824;9.220;2022-08-21T13:37:38;7.00;;;3.00;;
1715;SDS011;855;48.824;9.220;2022-08-21T13:40:09;6.80;;;3.00;;
1715;SDS011;855;48.824;9.220;2022-08-21T13:42:39;6.00;;;2.87;;
1715;SDS011;855;48.824;9.220;2022-08-21T13:45:11;7.87;;;3.20;;
1715;SDS011;855;48.824;9.220;2022-08-21T13:47:41;5.97;;;3.50;;
1715;SDS011;855;48.824;9.220;2022-08-21T13:50:10;10.60;;;3.53;;
1715;SDS011;855;48.824;9.220;2022-08-21T13:52:46;5.90;;;2.97;;
1715;SDS011;855;48.824;9.220;2022-08-21T13:55:17;7.60;;;3.67;;
1715;SDS011;855;48.824;9.220;2022-08-21T13:57:44;6.40;;;3.03;;
1715;SDS011;855;48.824;9.220;2022-08-21T14:00:12;8.90;;;3.27;;
1715;SDS011;855;48.824;9.220;2022-08-21T14:02:43;6.60;;;3.30;;
1715;SDS011;855;48.824;9.220;2022-08-21T14:05:15;4.43;;;2.70;;
1715;SDS011;855;48.824;9.220;2022-08-21T14:07:46;6.63;;;3.07;;
1715;SDS011;855;48.824;9.220;2022-08-21T14:10:18;10.23;;;2.90;;
1715;SDS011;855;48.824;9.220;2022-08-21T14:12:47;8.87;;;3.10;;
1715;SDS011;855;48.824;9.220;2022-08-21T14:15:17;10.20;;;3.40;;
1715;SDS011;855;48.824;9.220;2022-08-21T14:17:49;8.10;;;3.40;;
1715;SDS011;855;48.824;9.220;2022-08-21T14:20:26;7.10;;;2.60;;
1715;SDS011;855;48.824;9.220;2022-08-21T14:22:55;9.77;;;3.20;;
1715;SDS011;855;48.824;9.220;2022-08-21T14:25:36;5.33;;;2.93;;
1715;SDS011;855;48.824;9.220;2022-08-21T14:28:10;6.83;;;2.87;;
1715;SDS011;855;48.824;9.220;2022-08-21T14:30:42;5.17;;;2.90;;
1715;SDS011;855;48.824;9.220;2022-08-21T14:33:10;5.63;;;2.73;;
1715;SDS011;855;48.824;9.220;2022-08-21T14:35:38;7.90;;;2.97;;
1715;SDS011;855;48.824;9.220;2022-08-21T14:38:11;8.70;;;2.60;;
1715;SDS011;855;48.824;9.220;2022-08-21T14:40:39;7.63;;;2.57;;
1715;SDS011;855;48.824;9.220;2022-08-21T14:43:07;4.23;;;3.10;;
1715;SDS011;855;48.824;9.220;2022-08-21T14:45:35;7.87;;;3.03;;
1715;SDS011;855;48.824;9.220;2022-08-21T14:48:03;6.03;;;2.80;;
1715;SDS011;855;48.824;9.220;2022-08-21T14:50:30;6.17;;;3.20;;
1715;SDS011;855;48.824;9.220;2022-08-21T14:52:57;7.53;;;2.83;;
1715;SDS011;855;48.824;9.220;2022-08-21T14:55:25;7.80;;;3.13;;
1715;SDS011;855;48.824;9.220;2022-08-21T14:57:54;6.83;;;3.53;;
1715;SDS011;855;48.824;9.220;2022-08-21T15:00:23;4.90;;;2.87;;
1715;SDS011;855;48.824;9.220;2022-08-21T15:02:52;6.10;;;3.20;;
1715;SDS011;855;48.824;9.220;2022-08-21T15:05:19;6.43;;;2.60;;
1715;SDS011;855;48.824;9.220;2022-08-21T15:07:46;7.80;;;2.93;;
1715;SDS011;855;48.824;9.220;2022-08-21T15:10:12;6.13;;;2.60;;
1715;SDS011;855;48.824;9.220;2022-08-21T15:12:39;7.53;;;2.87;;
1715;SDS011;855;48.824;9.220;2022-08-21T15:15:08;9.30;;;3.20;;
1715;SDS011;855;48.824;9.220;2022-08-21T15:17:36;8.10;;;2.93;;
1715;SDS011;855;48.824;9.220;2022-08-21T15:20:03;6.03;;;2.40;;
1715;SDS011;855;48.824;9.220;2022-08-21T15:22:31;6.00;;;3.00;;
1715;SDS011;855;48.824;9.220;2022-08-21T15:24:58;6.13;;;2.97;;
1715;SDS011;855;48.824;9.220;2022-08-21T15:27:26;6.70;;;2.60;;
1715;SDS011;855;48.824;9.220;2022-08-21T15:29:53;5.40;;;2.30;;
1715;SDS011;855;48.824;9.220;2022-08-21T15:32:22;11.30;;;3.40;;
1715;SDS011;855;48.824;9.220;2022-08-21T15:34:51;6.20;;;2.90;;
1715;SDS011;855;48.824;9.220;2022-08-21T15:37:19;6.20;;;2.37;;
1715;SDS011;855;48.824;9.220;2022-08-21T15:39:48;11.37;;;3.43;;